sensor_id;sensor_type;location;lat;lon;timestamp;temperature;humidity
48946;DHT22;34999;50.940;3.998;2023-05-15T00:00:10;9.60;99.90
48946;DHT22;34999;50.940;3.998;2023-05-15T00:02:40;9.50;99.90
48946;DHT22;34999;50.940;3.998;2023-05-15T00:05:09;9.50;99.90
48946;DHT22;34999;50.940;3.998;2023-05-15T00:07:39;9.50;99.90
48946;DHT22;34999;50.940;3.998;2023-05-15T00:10:08;9.50;99.90
48946;DHT22;34999;50.940;3.998;2023-05-15T00:12:36;9.50;99.90
48946;DHT22;34999;50.940;3.998;2023-05-15T00:15:05;9.50;99.90
48946;DHT22;34999;50.940;3.998;2023-05-15T00:17:33;9.50;99.90
48946;DHT22;34999;50.940;3.998;2023-05-15T00:20:03;9.50;99.90
48946;DHT22;34999;50.940;3.998;2023-05-15T00:22:32;9.50;99.90
48946;DHT22;34999;50.940;3.998;2023-05-15T00:25:00;9.50;99.90
48946;DHT22;34999;50.940;3.998;2023-05-15T00:27:29;9.50;99.90
48946;DHT22;34999;50.940;3.998;2023-05-15T00:29:57;9.50;99.90
48946;DHT22;34999;50.940;3.998;2023-05-15T00:32:25;9.50;99.90
48946;DHT22;34999;50.940;3.998;2023-05-15T00:34:53;9.50;99.90
48946;DHT22;34999;50.940;3.998;2023-05-15T00:37:23;9.50;99.90
48946;DHT22;34999;50.940;3.998;2023-05-15T00:39:51;9.50;99.90
48946;DHT22;34999;50.940;3.998;2023-05-15T00:42:20;9.50;99.90
48946;DHT22;34999;50.940;3.998;2023-05-15T00:44:49;9.50;99.90
48946;DHT22;34999;50.940;3.998;2023-05-15T00:47:19;9.50;99.90
48946;DHT22;34999;50.940;3.998;2023-05-15T00:49:50;9.50;99.90
48946;DHT22;34999;50.940;3.998;2023-05-15T00:52:19;9.50;99.90
48946;DHT22;34999;50.940;3.998;2023-05-15T00:54:49;9.50;99.90
48946;DHT22;34999;50.940;3.998;2023-05-15T00:57:18;9.60;99.90
48946;DHT22;34999;50.940;3.998;2023-05-15T00:59:47;9.60;99.90
48946;DHT22;34999;50.940;3.998;2023-05-15T01:11:49;9.50;99.90
48946;DHT22;34999;50.940;3.998;2023-05-15T01:14:20;9.40;99.90
48946;DHT22;34999;50.940;3.998;2023-05-15T01:16:48;9.40;99.90
48946;DHT22;34999;50.940;3.998;2023-05-15T01:19:17;9.40;99.90
48946;DHT22;34999;50.940;3.998;2023-05-15T01:22:06;9.40;99.90
48946;DHT22;34999;50.940;3.998;2023-05-15T01:25:00;9.40;99.90
48946;DHT22;34999;50.940;3.998;2023-05-15T01:27:36;9.40;99.90
48946;DHT22;34999;50.940;3.998;2023-05-15T01:30:13;9.40;99.90
48946;DHT22;34999;50.940;3.998;2023-05-15T01:32:50;9.30;99.90
48946;DHT22;34999;50.940;3.998;2023-05-15T01:35:24;9.30;99.90
48946;DHT22;34999;50.940;3.998;2023-05-15T01:38:07;9.30;99.90
48946;DHT22;34999;50.940;3.998;2023-05-15T01:40:40;9.30;99.90
48946;DHT22;34999;50.940;3.998;2023-05-15T01:43:12;9.20;99.90
48946;DHT22;34999;50.940;3.998;2023-05-15T01:45:42;9.20;99.90
48946;DHT22;34999;50.940;3.998;2023-05-15T01:48:13;9.20;99.90
48946;DHT22;34999;50.940;3.998;2023-05-15T01:50:42;9.20;99.90
48946;DHT22;34999;50.940;3.998;2023-05-15T01:53:13;9.20;99.90
48946;DHT22;34999;50.940;3.998;2023-05-15T01:55:42;9.20;99.90
48946;DHT22;34999;50.940;3.998;2023-05-15T01:58:13;9.20;99.90
48946;DHT22;34999;50.940;3.998;2023-05-15T02:00:42;9.20;99.90
48946;DHT22;34999;50.940;3.998;2023-05-15T02:03:12;9.10;99.90
48946;DHT22;34999;50.940;3.998;2023-05-15T02:05:41;9.10;99.90
48946;DHT22;34999;50.940;3.998;2023-05-15T02:08:10;9.10;99.90
48946;DHT22;34999;50.940;3.998;2023-05-15T02:10:39;9.00;99.90
48946;DHT22;34999;50.940;3.998;2023-05-15T02:13:08;9.00;99.90
48946;DHT22;34999;50.940;3.998;2023-05-15T02:15:38;9.00;99.90
48946;DHT22;34999;50.940;3.998;2023-05-15T02:18:06;9.00;99.90
48946;DHT22;34999;50.940;3.998;2023-05-15T02:20:35;9.00;99.90
48946;DHT22;34999;50.940;3.998;2023-05-15T02:23:03;9.00;99.90
48946;DHT22;34999;50.940;3.998;2023-05-15T02:25:37;9.00;99.90
48946;DHT22;34999;50.940;3.998;2023-05-15T02:28:15;9.10;99.90
48946;DHT22;34999;50.940;3.998;2023-05-15T02:34:33;9.20;99.90
48946;DHT22;34999;50.940;3.998;2023-05-15T02:37:03;9.30;99.90
48946;DHT22;34999;50.940;3.998;2023-05-15T02:39:36;9.40;99.90
48946;DHT22;34999;50.940;3.998;2023-05-15T02:42:06;9.40;99.90
48946;DHT22;34999;50.940;3.998;2023-05-15T02:44:36;9.40;99.90
48946;DHT22;34999;50.940;3.998;2023-05-15T02:47:06;9.40;99.90
48946;DHT22;34999;50.940;3.998;2023-05-15T02:49:37;9.40;99.90
48946;DHT22;34999;50.940;3.998;2023-05-15T02:52:06;9.50;99.90
48946;DHT22;34999;50.940;3.998;2023-05-15T02:54:34;9.50;99.90
48946;DHT22;34999;50.940;3.998;2023-05-15T02:57:03;9.40;99.90
48946;DHT22;34999;50.940;3.998;2023-05-15T02:59:31;9.40;99.90
48946;DHT22;34999;50.940;3.998;2023-05-15T03:01:59;9.40;99.90
48946;DHT22;34999;50.940;3.998;2023-05-15T03:04:29;9.40;99.90
48946;DHT22;34999;50.940;3.998;2023-05-15T03:06:59;9.40;99.90
48946;DHT22;34999;50.940;3.998;2023-05-15T03:09:30;9.40;99.90
48946;DHT22;34999;50.940;3.998;2023-05-15T03:11:58;9.40;99.90
48946;DHT22;34999;50.940;3.998;2023-05-15T03:14:26;9.40;99.90
48946;DHT22;34999;50.940;3.998;2023-05-15T03:16:54;9.30;99.90
48946;DHT22;34999;50.940;3.998;2023-05-15T03:19:23;9.40;99.90
48946;DHT22;34999;50.940;3.998;2023-05-15T03:21:51;9.30;99.90
48946;DHT22;34999;50.940;3.998;2023-05-15T03:24:20;9.40;99.90
48946;DHT22;34999;50.940;3.998;2023-05-15T03:26:48;9.40;99.90
48946;DHT22;34999;50.940;3.998;2023-05-15T03:29:16;9.30;99.90
48946;DHT22;34999;50.940;3.998;2023-05-15T03:31:45;9.40;99.90
48946;DHT22;34999;50.940;3.998;2023-05-15T03:34:13;9.40;99.90
48946;DHT22;34999;50.940;3.998;2023-05-15T03:36:41;9.40;99.90
48946;DHT22;34999;50.940;3.998;2023-05-15T03:39:09;9.30;99.90
48946;DHT22;34999;50.940;3.998;2023-05-15T03:41:39;9.30;99.90
48946;DHT22;34999;50.940;3.998;2023-05-15T03:44:07;9.30;99.90
48946;DHT22;34999;50.940;3.998;2023-05-15T03:46:35;9.30;99.90
48946;DHT22;34999;50.940;3.998;2023-05-15T03:49:04;9.30;99.90
48946;DHT22;34999;50.940;3.998;2023-05-15T03:51:32;9.30;99.90
48946;DHT22;34999;50.940;3.998;2023-05-15T03:54:00;9.30;99.90
48946;DHT22;34999;50.940;3.998;2023-05-15T03:56:31;9.20;99.90
48946;DHT22;34999;50.940;3.998;2023-05-15T03:59:00;9.20;99.90
48946;DHT22;34999;50.940;3.998;2023-05-15T04:01:28;9.30;99.90
48946;DHT22;34999;50.940;3.998;2023-05-15T04:03:57;9.30;99.90
48946;DHT22;34999;50.940;3.998;2023-05-15T04:06:25;9.40;99.90
48946;DHT22;34999;50.940;3.998;2023-05-15T04:08:53;9.40;99.90
48946;DHT22;34999;50.940;3.998;2023-05-15T04:11:23;9.30;99.90
48946;DHT22;34999;50.940;3.998;2023-05-15T04:13:51;9.30;99.90
48946;DHT22;34999;50.940;3.998;2023-05-15T04:16:20;9.30;99.90
48946;DHT22;34999;50.940;3.998;2023-05-15T04:18:49;9.30;99.90
48946;DHT22;34999;50.940;3.998;2023-05-15T04:21:17;9.30;99.90
48946;DHT22;34999;50.940;3.998;2023-05-15T04:23:45;9.20;99.90
48946;DHT22;34999;50.940;3.998;2023-05-15T04:26:13;9.20;99.90
48946;DHT22;34999;50.940;3.998;2023-05-15T04:28:41;9.20;99.90
48946;DHT22;34999;50.940;3.998;2023-05-15T04:31:23;9.10;99.90
48946;DHT22;34999;50.940;3.998;2023-05-15T04:33:51;9.20;99.90
48946;DHT22;34999;50.940;3.998;2023-05-15T04:36:20;9.20;99.90
48946;DHT22;34999;50.940;3.998;2023-05-15T04:38:48;9.20;99.90
48946;DHT22;34999;50.940;3.998;2023-05-15T04:41:17;9.30;99.90
48946;DHT22;34999;50.940;3.998;2023-05-15T04:44:04;9.30;99.90
48946;DHT22;34999;50.940;3.998;2023-05-15T04:46:36;9.40;99.90
48946;DHT22;34999;50.940;3.998;2023-05-15T04:49:05;9.40;99.90
48946;DHT22;34999;50.940;3.998;2023-05-15T04:51:33;9.40;99.90
48946;DHT22;34999;50.940;3.998;2023-05-15T04:54:01;9.40;99.90
48946;DHT22;34999;50.940;3.998;2023-05-15T04:56:30;9.40;99.90
48946;DHT22;34999;50.940;3.998;2023-05-15T04:58:59;9.30;99.90
48946;DHT22;34999;50.940;3.998;2023-05-15T05:01:27;9.30;99.90
48946;DHT22;34999;50.940;3.998;2023-05-15T05:03:57;9.30;99.90
48946;DHT22;34999;50.940;3.998;2023-05-15T05:06:25;9.40;99.90
48946;DHT22;34999;50.940;3.998;2023-05-15T05:08:56;9.40;99.90
48946;DHT22;34999;50.940;3.998;2023-05-15T05:11:24;9.40;99.90
48946;DHT22;34999;50.940;3.998;2023-05-15T05:13:53;9.40;99.90
48946;DHT22;34999;50.940;3.998;2023-05-15T05:16:21;9.40;99.90
48946;DHT22;34999;50.940;3.998;2023-05-15T05:18:49;9.40;99.90
48946;DHT22;34999;50.940;3.998;2023-05-15T05:21:19;9.50;99.90
48946;DHT22;34999;50.940;3.998;2023-05-15T05:23:47;9.50;99.90
48946;DHT22;34999;50.940;3.998;2023-05-15T05:26:15;9.50;99.90
48946;DHT22;34999;50.940;3.998;2023-05-15T05:28:43;9.50;99.90
48946;DHT22;34999;50.940;3.998;2023-05-15T05:31:11;9.50;99.90
48946;DHT22;34999;50.940;3.998;2023-05-15T05:33:40;9.60;99.90
48946;DHT22;34999;50.940;3.998;2023-05-15T05:36:08;9.60;99.90
48946;DHT22;34999;50.940;3.998;2023-05-15T05:38:38;9.70;99.90
48946;DHT22;34999;50.940;3.998;2023-05-15T05:41:06;9.70;99.90
48946;DHT22;34999;50.940;3.998;2023-05-15T05:43:34;9.70;99.90
48946;DHT22;34999;50.940;3.998;2023-05-15T05:46:02;9.70;99.90
48946;DHT22;34999;50.940;3.998;2023-05-15T05:48:30;9.80;99.90
48946;DHT22;34999;50.940;3.998;2023-05-15T05:50:59;9.80;99.90
48946;DHT22;34999;50.940;3.998;2023-05-15T05:53:27;9.80;99.90
48946;DHT22;34999;50.940;3.998;2023-05-15T05:55:57;9.80;99.90
48946;DHT22;34999;50.940;3.998;2023-05-15T05:58:26;9.80;99.90
48946;DHT22;34999;50.940;3.998;2023-05-15T06:00:54;9.80;99.90
48946;DHT22;34999;50.940;3.998;2023-05-15T06:03:23;9.90;99.90
48946;DHT22;34999;50.940;3.998;2023-05-15T06:05:52;9.90;99.90
48946;DHT22;34999;50.940;3.998;2023-05-15T06:08:20;9.90;99.90
48946;DHT22;34999;50.940;3.998;2023-05-15T06:10:48;9.90;99.90
48946;DHT22;34999;50.940;3.998;2023-05-15T06:13:18;9.90;99.90
48946;DHT22;34999;50.940;3.998;2023-05-15T06:15:46;9.90;99.90
48946;DHT22;34999;50.940;3.998;2023-05-15T06:18:14;9.90;99.90
48946;DHT22;34999;50.940;3.998;2023-05-15T06:20:42;9.80;99.90
48946;DHT22;34999;50.940;3.998;2023-05-15T06:23:11;9.90;99.90
48946;DHT22;34999;50.940;3.998;2023-05-15T06:25:39;9.90;99.90
48946;DHT22;34999;50.940;3.998;2023-05-15T06:28:07;10.00;99.90
48946;DHT22;34999;50.940;3.998;2023-05-15T06:30:37;10.00;99.90
48946;DHT22;34999;50.940;3.998;2023-05-15T06:33:05;10.00;99.90
48946;DHT22;34999;50.940;3.998;2023-05-15T06:35:33;10.00;99.90
48946;DHT22;34999;50.940;3.998;2023-05-15T06:38:02;10.10;99.90
48946;DHT22;34999;50.940;3.998;2023-05-15T06:40:30;10.20;99.90
48946;DHT22;34999;50.940;3.998;2023-05-15T06:42:58;10.30;99.90
48946;DHT22;34999;50.940;3.998;2023-05-15T06:45:27;10.30;99.90
48946;DHT22;34999;50.940;3.998;2023-05-15T06:47:56;10.40;99.90
48946;DHT22;34999;50.940;3.998;2023-05-15T06:50:28;10.40;99.90
48946;DHT22;34999;50.940;3.998;2023-05-15T06:52:56;10.50;99.90
48946;DHT22;34999;50.940;3.998;2023-05-15T06:55:24;10.60;99.90
48946;DHT22;34999;50.940;3.998;2023-05-15T06:57:52;10.60;99.90
48946;DHT22;34999;50.940;3.998;2023-05-15T07:00:21;10.70;99.90
48946;DHT22;34999;50.940;3.998;2023-05-15T07:02:49;10.80;99.90
48946;DHT22;34999;50.940;3.998;2023-05-15T07:05:19;10.70;99.90
48946;DHT22;34999;50.940;3.998;2023-05-15T07:07:47;10.80;99.90
48946;DHT22;34999;50.940;3.998;2023-05-15T07:10:16;10.80;99.90
48946;DHT22;34999;50.940;3.998;2023-05-15T07:12:44;10.80;99.90
48946;DHT22;34999;50.940;3.998;2023-05-15T07:15:12;10.90;99.90
48946;DHT22;34999;50.940;3.998;2023-05-15T07:17:40;11.00;99.90
48946;DHT22;34999;50.940;3.998;2023-05-15T07:20:09;10.90;99.90
48946;DHT22;34999;50.940;3.998;2023-05-15T07:22:39;11.00;99.90
48946;DHT22;34999;50.940;3.998;2023-05-15T07:25:22;11.00;99.90
48946;DHT22;34999;50.940;3.998;2023-05-15T07:27:51;11.10;99.90
48946;DHT22;34999;50.940;3.998;2023-05-15T07:30:19;11.10;99.90
48946;DHT22;34999;50.940;3.998;2023-05-15T07:32:48;11.10;99.90
48946;DHT22;34999;50.940;3.998;2023-05-15T07:35:16;11.30;99.90
48946;DHT22;34999;50.940;3.998;2023-05-15T07:37:46;11.50;99.90
48946;DHT22;34999;50.940;3.998;2023-05-15T07:40:15;11.50;99.90
48946;DHT22;34999;50.940;3.998;2023-05-15T07:42:43;11.70;99.90
48946;DHT22;34999;50.940;3.998;2023-05-15T07:45:11;11.70;99.90
48946;DHT22;34999;50.940;3.998;2023-05-15T07:47:43;11.80;99.90
48946;DHT22;34999;50.940;3.998;2023-05-15T07:50:12;11.60;99.90
48946;DHT22;34999;50.940;3.998;2023-05-15T07:52:40;11.50;99.90
48946;DHT22;34999;50.940;3.998;2023-05-15T07:55:10;11.50;99.90
48946;DHT22;34999;50.940;3.998;2023-05-15T07:57:39;11.50;99.90
48946;DHT22;34999;50.940;3.998;2023-05-15T08:00:08;11.60;99.90
48946;DHT22;34999;50.940;3.998;2023-05-15T08:02:38;12.00;99.90
48946;DHT22;34999;50.940;3.998;2023-05-15T08:05:07;12.20;99.90
48946;DHT22;34999;50.940;3.998;2023-05-15T08:07:35;12.50;99.90
48946;DHT22;34999;50.940;3.998;2023-05-15T08:10:05;12.70;99.90
48946;DHT22;34999;50.940;3.998;2023-05-15T08:12:35;12.60;99.90
48946;DHT22;34999;50.940;3.998;2023-05-15T08:15:04;12.60;99.90
48946;DHT22;34999;50.940;3.998;2023-05-15T08:17:32;12.70;99.90
48946;DHT22;34999;50.940;3.998;2023-05-15T08:20:01;12.90;99.90
48946;DHT22;34999;50.940;3.998;2023-05-15T08:22:30;13.00;99.90
48946;DHT22;34999;50.940;3.998;2023-05-15T08:24:59;12.90;99.90
48946;DHT22;34999;50.940;3.998;2023-05-15T08:27:29;12.80;99.90
48946;DHT22;34999;50.940;3.998;2023-05-15T08:29:59;12.70;99.90
48946;DHT22;34999;50.940;3.998;2023-05-15T08:32:27;12.70;99.90
48946;DHT22;34999;50.940;3.998;2023-05-15T08:34:55;12.70;99.90
48946;DHT22;34999;50.940;3.998;2023-05-15T08:37:24;12.80;99.90
48946;DHT22;34999;50.940;3.998;2023-05-15T08:39:52;13.00;99.90
48946;DHT22;34999;50.940;3.998;2023-05-15T08:42:23;13.40;99.90
48946;DHT22;34999;50.940;3.998;2023-05-15T08:44:55;13.60;95.20
48946;DHT22;34999;50.940;3.998;2023-05-15T08:47:26;13.60;95.50
48946;DHT22;34999;50.940;3.998;2023-05-15T08:50:01;13.60;94.00
48946;DHT22;34999;50.940;3.998;2023-05-15T08:52:33;13.70;95.50
48946;DHT22;34999;50.940;3.998;2023-05-15T08:55:02;13.90;88.80
48946;DHT22;34999;50.940;3.998;2023-05-15T08:57:32;14.10;82.90
48946;DHT22;34999;50.940;3.998;2023-05-15T09:00:01;14.30;64.70
48946;DHT22;34999;50.940;3.998;2023-05-15T09:02:36;14.30;71.20
48946;DHT22;34999;50.940;3.998;2023-05-15T09:05:05;14.20;63.10
48946;DHT22;34999;50.940;3.998;2023-05-15T09:07:35;14.10;73.30
48946;DHT22;34999;50.940;3.998;2023-05-15T09:10:05;14.10;79.00
48946;DHT22;34999;50.940;3.998;2023-05-15T09:12:35;14.10;77.50
48946;DHT22;34999;50.940;3.998;2023-05-15T09:15:09;14.10;73.10
48946;DHT22;34999;50.940;3.998;2023-05-15T09:17:39;14.00;72.10
48946;DHT22;34999;50.940;3.998;2023-05-15T09:20:24;14.00;78.20
48946;DHT22;34999;50.940;3.998;2023-05-15T09:22:53;14.00;92.10
48946;DHT22;34999;50.940;3.998;2023-05-15T09:25:32;14.10;94.80
48946;DHT22;34999;50.940;3.998;2023-05-15T09:28:01;14.00;77.20
48946;DHT22;34999;50.940;3.998;2023-05-15T09:30:30;13.90;81.80
48946;DHT22;34999;50.940;3.998;2023-05-15T09:33:00;13.90;92.30
48946;DHT22;34999;50.940;3.998;2023-05-15T09:35:33;13.80;87.50
48946;DHT22;34999;50.940;3.998;2023-05-15T09:38:03;13.80;95.30
48946;DHT22;34999;50.940;3.998;2023-05-15T09:40:35;13.70;96.50
48946;DHT22;34999;50.940;3.998;2023-05-15T09:43:03;13.50;96.50
48946;DHT22;34999;50.940;3.998;2023-05-15T09:45:31;13.50;99.40
48946;DHT22;34999;50.940;3.998;2023-05-15T09:48:03;13.40;99.90
48946;DHT22;34999;50.940;3.998;2023-05-15T09:50:34;13.40;99.90
48946;DHT22;34999;50.940;3.998;2023-05-15T09:53:03;13.40;99.90
48946;DHT22;34999;50.940;3.998;2023-05-15T09:55:31;13.40;99.90
48946;DHT22;34999;50.940;3.998;2023-05-15T09:58:05;13.50;99.90
48946;DHT22;34999;50.940;3.998;2023-05-15T10:00:35;13.60;99.90
48946;DHT22;34999;50.940;3.998;2023-05-15T10:03:16;13.70;97.80
48946;DHT22;34999;50.940;3.998;2023-05-15T10:05:45;13.80;98.20
48946;DHT22;34999;50.940;3.998;2023-05-15T10:08:14;14.00;95.60
48946;DHT22;34999;50.940;3.998;2023-05-15T10:10:43;14.20;93.50
48946;DHT22;34999;50.940;3.998;2023-05-15T10:13:12;14.40;88.20
48946;DHT22;34999;50.940;3.998;2023-05-15T10:15:41;14.60;82.00
48946;DHT22;34999;50.940;3.998;2023-05-15T10:18:10;14.70;77.20
48946;DHT22;34999;50.940;3.998;2023-05-15T10:20:41;14.80;55.90
48946;DHT22;34999;50.940;3.998;2023-05-15T10:23:09;14.80;65.50
48946;DHT22;34999;50.940;3.998;2023-05-15T10:25:42;14.70;65.00
48946;DHT22;34999;50.940;3.998;2023-05-15T10:28:11;14.50;65.40
48946;DHT22;34999;50.940;3.998;2023-05-15T10:30:41;14.40;78.80
48946;DHT22;34999;50.940;3.998;2023-05-15T10:33:10;14.20;87.50
48946;DHT22;34999;50.940;3.998;2023-05-15T10:35:41;14.10;83.50
48946;DHT22;34999;50.940;3.998;2023-05-15T10:38:10;14.00;88.40
48946;DHT22;34999;50.940;3.998;2023-05-15T10:40:39;13.90;96.60
48946;DHT22;34999;50.940;3.998;2023-05-15T10:43:08;13.80;95.80
48946;DHT22;34999;50.940;3.998;2023-05-15T10:45:38;13.70;99.90
48946;DHT22;34999;50.940;3.998;2023-05-15T10:48:07;13.60;97.90
48946;DHT22;34999;50.940;3.998;2023-05-15T10:50:38;13.70;99.90
48946;DHT22;34999;50.940;3.998;2023-05-15T10:53:09;13.60;99.90
48946;DHT22;34999;50.940;3.998;2023-05-15T10:55:38;13.60;99.90
48946;DHT22;34999;50.940;3.998;2023-05-15T10:58:10;13.60;99.90
48946;DHT22;34999;50.940;3.998;2023-05-15T11:00:42;13.70;99.90
48946;DHT22;34999;50.940;3.998;2023-05-15T11:03:14;13.70;99.90
48946;DHT22;34999;50.940;3.998;2023-05-15T11:06:06;13.80;99.90
48946;DHT22;34999;50.940;3.998;2023-05-15T11:08:38;13.80;99.90
48946;DHT22;34999;50.940;3.998;2023-05-15T11:11:06;13.70;99.20
48946;DHT22;34999;50.940;3.998;2023-05-15T11:14:10;13.70;99.90
48946;DHT22;34999;50.940;3.998;2023-05-15T11:16:58;13.70;99.90
48946;DHT22;34999;50.940;3.998;2023-05-15T11:19:34;13.60;99.90
48946;DHT22;34999;50.940;3.998;2023-05-15T11:22:16;13.60;99.90
48946;DHT22;34999;50.940;3.998;2023-05-15T11:24:50;13.50;99.90
48946;DHT22;34999;50.940;3.998;2023-05-15T11:27:20;13.50;99.90
48946;DHT22;34999;50.940;3.998;2023-05-15T11:30:09;13.40;99.90
48946;DHT22;34999;50.940;3.998;2023-05-15T11:32:42;13.40;99.90
48946;DHT22;34999;50.940;3.998;2023-05-15T11:35:11;13.40;99.90
48946;DHT22;34999;50.940;3.998;2023-05-15T11:37:45;13.30;99.90
48946;DHT22;34999;50.940;3.998;2023-05-15T11:40:18;13.20;99.90
48946;DHT22;34999;50.940;3.998;2023-05-15T11:43:02;13.10;99.90
48946;DHT22;34999;50.940;3.998;2023-05-15T11:45:32;13.00;99.90
48946;DHT22;34999;50.940;3.998;2023-05-15T11:48:04;13.00;99.90
48946;DHT22;34999;50.940;3.998;2023-05-15T11:50:33;13.00;99.90
48946;DHT22;34999;50.940;3.998;2023-05-15T11:53:03;12.90;99.90
48946;DHT22;34999;50.940;3.998;2023-05-15T11:55:35;12.90;99.90
48946;DHT22;34999;50.940;3.998;2023-05-15T11:58:04;12.80;99.90
48946;DHT22;34999;50.940;3.998;2023-05-15T12:00:32;12.80;99.90
48946;DHT22;34999;50.940;3.998;2023-05-15T12:03:01;12.80;99.90
48946;DHT22;34999;50.940;3.998;2023-05-15T12:05:30;12.80;99.90
48946;DHT22;34999;50.940;3.998;2023-05-15T12:08:00;12.90;99.90
48946;DHT22;34999;50.940;3.998;2023-05-15T12:10:29;13.00;99.90
48946;DHT22;34999;50.940;3.998;2023-05-15T12:13:00;13.00;99.90
48946;DHT22;34999;50.940;3.998;2023-05-15T12:15:28;13.00;99.90
48946;DHT22;34999;50.940;3.998;2023-05-15T12:17:56;13.00;99.90
48946;DHT22;34999;50.940;3.998;2023-05-15T12:20:24;12.80;99.90
48946;DHT22;34999;50.940;3.998;2023-05-15T12:26:34;12.60;99.90
48946;DHT22;34999;50.940;3.998;2023-05-15T12:29:04;12.60;99.90
48946;DHT22;34999;50.940;3.998;2023-05-15T12:31:34;12.60;99.90
48946;DHT22;34999;50.940;3.998;2023-05-15T12:34:02;12.50;99.90
48946;DHT22;34999;50.940;3.998;2023-05-15T12:36:30;12.50;99.90
48946;DHT22;34999;50.940;3.998;2023-05-15T12:39:04;12.50;99.90
48946;DHT22;34999;50.940;3.998;2023-05-15T12:41:36;12.50;99.90
48946;DHT22;34999;50.940;3.998;2023-05-15T12:44:07;12.50;99.90
48946;DHT22;34999;50.940;3.998;2023-05-15T12:46:42;12.50;99.90
48946;DHT22;34999;50.940;3.998;2023-05-15T12:49:11;12.50;99.90
48946;DHT22;34999;50.940;3.998;2023-05-15T12:51:42;12.60;99.90
48946;DHT22;34999;50.940;3.998;2023-05-15T12:54:16;12.70;99.90
48946;DHT22;34999;50.940;3.998;2023-05-15T12:56:46;12.80;99.90
48946;DHT22;34999;50.940;3.998;2023-05-15T12:59:15;12.70;99.90
48946;DHT22;34999;50.940;3.998;2023-05-15T13:01:44;12.60;99.90
48946;DHT22;34999;50.940;3.998;2023-05-15T13:04:12;12.50;99.90
48946;DHT22;34999;50.940;3.998;2023-05-15T13:06:43;12.50;99.90
48946;DHT22;34999;50.940;3.998;2023-05-15T13:09:20;12.50;99.90
48946;DHT22;34999;50.940;3.998;2023-05-15T13:11:48;12.50;99.90
48946;DHT22;34999;50.940;3.998;2023-05-15T13:14:18;12.50;99.90
48946;DHT22;34999;50.940;3.998;2023-05-15T13:16:48;12.50;99.90
48946;DHT22;34999;50.940;3.998;2023-05-15T13:19:17;12.50;99.90
48946;DHT22;34999;50.940;3.998;2023-05-15T13:21:45;12.50;99.90
48946;DHT22;34999;50.940;3.998;2023-05-15T13:24:16;12.50;99.90
48946;DHT22;34999;50.940;3.998;2023-05-15T13:26:44;12.50;99.90
48946;DHT22;34999;50.940;3.998;2023-05-15T13:29:13;12.50;99.90
48946;DHT22;34999;50.940;3.998;2023-05-15T13:31:43;12.40;99.90
48946;DHT22;34999;50.940;3.998;2023-05-15T13:34:11;12.30;99.90
48946;DHT22;34999;50.940;3.998;2023-05-15T13:36:39;12.30;99.90
48946;DHT22;34999;50.940;3.998;2023-05-15T13:39:07;12.20;99.90
48946;DHT22;34999;50.940;3.998;2023-05-15T13:41:36;12.20;99.90
48946;DHT22;34999;50.940;3.998;2023-05-15T13:44:04;12.30;99.90
48946;DHT22;34999;50.940;3.998;2023-05-15T13:46:33;12.30;99.90
48946;DHT22;34999;50.940;3.998;2023-05-15T13:49:03;12.40;99.90
48946;DHT22;34999;50.940;3.998;2023-05-15T13:51:33;12.40;99.90
48946;DHT22;34999;50.940;3.998;2023-05-15T13:54:01;12.40;99.90
48946;DHT22;34999;50.940;3.998;2023-05-15T13:56:29;12.40;99.90
48946;DHT22;34999;50.940;3.998;2023-05-15T13:58:58;12.50;99.90
48946;DHT22;34999;50.940;3.998;2023-05-15T14:01:26;12.50;99.90
48946;DHT22;34999;50.940;3.998;2023-05-15T14:03:54;12.40;99.90
48946;DHT22;34999;50.940;3.998;2023-05-15T14:06:24;12.30;99.90
48946;DHT22;34999;50.940;3.998;2023-05-15T14:08:56;12.20;99.90
48946;DHT22;34999;50.940;3.998;2023-05-15T14:11:24;12.20;99.90
48946;DHT22;34999;50.940;3.998;2023-05-15T14:13:52;12.10;99.90
48946;DHT22;34999;50.940;3.998;2023-05-15T14:16:21;12.10;99.90
48946;DHT22;34999;50.940;3.998;2023-05-15T14:18:49;12.10;99.90
48946;DHT22;34999;50.940;3.998;2023-05-15T14:21:17;12.20;99.90
48946;DHT22;34999;50.940;3.998;2023-05-15T14:23:47;12.20;99.90
48946;DHT22;34999;50.940;3.998;2023-05-15T14:26:15;12.10;99.90
48946;DHT22;34999;50.940;3.998;2023-05-15T14:28:43;12.00;99.90
48946;DHT22;34999;50.940;3.998;2023-05-15T14:31:12;12.00;99.90
48946;DHT22;34999;50.940;3.998;2023-05-15T14:33:40;11.90;99.90
48946;DHT22;34999;50.940;3.998;2023-05-15T14:36:08;11.80;99.90
48946;DHT22;34999;50.940;3.998;2023-05-15T14:38:36;11.80;99.90
48946;DHT22;34999;50.940;3.998;2023-05-15T14:41:06;11.90;99.90
48946;DHT22;34999;50.940;3.998;2023-05-15T14:43:35;11.90;99.90
48946;DHT22;34999;50.940;3.998;2023-05-15T14:46:03;12.00;99.90
48946;DHT22;34999;50.940;3.998;2023-05-15T14:48:33;12.00;99.90
48946;DHT22;34999;50.940;3.998;2023-05-15T14:51:01;12.10;99.90
48946;DHT22;34999;50.940;3.998;2023-05-15T14:53:30;12.20;99.90
48946;DHT22;34999;50.940;3.998;2023-05-15T14:55:58;12.20;99.90
48946;DHT22;34999;50.940;3.998;2023-05-15T14:58:28;12.30;99.90
48946;DHT22;34999;50.940;3.998;2023-05-15T15:00:56;12.30;99.90
48946;DHT22;34999;50.940;3.998;2023-05-15T15:03:24;12.30;99.90
48946;DHT22;34999;50.940;3.998;2023-05-15T15:05:55;12.30;99.90
48946;DHT22;34999;50.940;3.998;2023-05-15T15:08:24;12.20;99.90
48946;DHT22;34999;50.940;3.998;2023-05-15T15:10:52;12.20;99.90
48946;DHT22;34999;50.940;3.998;2023-05-15T15:13:20;12.00;99.90
48946;DHT22;34999;50.940;3.998;2023-05-15T15:15:51;12.10;99.90
48946;DHT22;34999;50.940;3.998;2023-05-15T15:18:19;12.20;99.90
48946;DHT22;34999;50.940;3.998;2023-05-15T15:20:48;12.40;99.90
48946;DHT22;34999;50.940;3.998;2023-05-15T15:23:16;12.50;99.90
48946;DHT22;34999;50.940;3.998;2023-05-15T15:25:44;12.70;99.90
48946;DHT22;34999;50.940;3.998;2023-05-15T15:28:12;12.70;99.90
48946;DHT22;34999;50.940;3.998;2023-05-15T15:30:40;12.80;99.90
48946;DHT22;34999;50.940;3.998;2023-05-15T15:33:10;12.90;99.90
48946;DHT22;34999;50.940;3.998;2023-05-15T15:35:38;12.80;99.90
48946;DHT22;34999;50.940;3.998;2023-05-15T15:38:07;12.70;99.90
48946;DHT22;34999;50.940;3.998;2023-05-15T15:40:37;12.70;99.90
48946;DHT22;34999;50.940;3.998;2023-05-15T15:43:05;12.70;99.90
48946;DHT22;34999;50.940;3.998;2023-05-15T15:45:33;12.80;99.90
48946;DHT22;34999;50.940;3.998;2023-05-15T15:48:01;12.80;99.90
48946;DHT22;34999;50.940;3.998;2023-05-15T15:50:31;12.80;99.90
48946;DHT22;34999;50.940;3.998;2023-05-15T15:52:59;12.90;99.90
48946;DHT22;34999;50.940;3.998;2023-05-15T15:55:28;12.90;99.90
48946;DHT22;34999;50.940;3.998;2023-05-15T15:57:56;13.00;99.90
48946;DHT22;34999;50.940;3.998;2023-05-15T16:00:24;12.90;99.90
48946;DHT22;34999;50.940;3.998;2023-05-15T16:02:52;12.90;99.90
48946;DHT22;34999;50.940;3.998;2023-05-15T16:05:21;12.90;99.90
48946;DHT22;34999;50.940;3.998;2023-05-15T16:07:50;12.80;99.90
48946;DHT22;34999;50.940;3.998;2023-05-15T16:10:18;12.80;99.90